sensor_id;sensor_type;location;lat;lon;timestamp;temperature;humidity
7476;DHT22;3779;49.216;8.650;2024-03-02T00:02:30;19.50;44.00
7476;DHT22;3779;49.216;8.650;2024-03-02T00:28:56;19.50;44.10
7476;DHT22;3779;49.216;8.650;2024-03-02T00:40:35;19.60;45.10
7476;DHT22;3779;49.216;8.650;2024-03-02T00:43:41;19.70;43.50
7476;DHT22;3779;49.216;8.650;2024-03-02T00:46:38;19.70;45.10
7476;DHT22;3779;49.216;8.650;2024-03-02T00:49:48;19.70;47.00
7476;DHT22;3779;49.216;8.650;2024-03-02T00:52:42;19.70;44.30
7476;DHT22;3779;49.216;8.650;2024-03-02T00:55:28;19.70;44.60
7476;DHT22;3779;49.216;8.650;2024-03-02T00:58:14;19.70;43.40
7476;DHT22;3779;49.216;8.650;2024-03-02T01:01:00;19.70;43.20
7476;DHT22;3779;49.216;8.650;2024-03-02T01:03:49;19.60;44.80
7476;DHT22;3779;49.216;8.650;2024-03-02T01:06:35;19.70;44.60
7476;DHT22;3779;49.216;8.650;2024-03-02T01:09:21;19.70;43.10
7476;DHT22;3779;49.216;8.650;2024-03-02T01:12:07;19.60;43.70
7476;DHT22;3779;49.216;8.650;2024-03-02T01:14:53;19.60;42.80
7476;DHT22;3779;49.216;8.650;2024-03-02T01:17:38;19.50;42.20
7476;DHT22;3779;49.216;8.650;2024-03-02T01:20:24;19.50;42.40
7476;DHT22;3779;49.216;8.650;2024-03-02T01:23:10;19.50;41.90
7476;DHT22;3779;49.216;8.650;2024-03-02T01:25:56;19.60;42.00
7476;DHT22;3779;49.216;8.650;2024-03-02T01:28:42;19.50;41.90
7476;DHT22;3779;49.216;8.650;2024-03-02T01:31:27;19.50;41.60
7476;DHT22;3779;49.216;8.650;2024-03-02T01:34:13;19.60;43.30
7476;DHT22;3779;49.216;8.650;2024-03-02T01:36:59;19.50;43.00
7476;DHT22;3779;49.216;8.650;2024-03-02T01:39:44;19.50;44.00
7476;DHT22;3779;49.216;8.650;2024-03-02T01:42:30;19.60;43.30
7476;DHT22;3779;49.216;8.650;2024-03-02T01:45:16;19.60;43.20
7476;DHT22;3779;49.216;8.650;2024-03-02T01:48:03;19.60;43.20
7476;DHT22;3779;49.216;8.650;2024-03-02T01:50:48;19.60;44.50
7476;DHT22;3779;49.216;8.650;2024-03-02T01:53:34;19.60;44.10
7476;DHT22;3779;49.216;8.650;2024-03-02T01:56:20;20.60;45.60
7476;DHT22;3779;49.216;8.650;2024-03-02T01:59:06;19.70;44.50
7476;DHT22;3779;49.216;8.650;2024-03-02T02:01:52;19.70;45.60
7476;DHT22;3779;49.216;8.650;2024-03-02T02:04:38;19.60;44.50
7476;DHT22;3779;49.216;8.650;2024-03-02T02:07:23;19.70;45.60
7476;DHT22;3779;49.216;8.650;2024-03-02T02:10:10;19.70;45.30
7476;DHT22;3779;49.216;8.650;2024-03-02T02:12:56;19.70;44.90
7476;DHT22;3779;49.216;8.650;2024-03-02T02:15:42;19.70;44.20
7476;DHT22;3779;49.216;8.650;2024-03-02T02:18:28;19.70;44.20
7476;DHT22;3779;49.216;8.650;2024-03-02T02:21:13;19.70;43.60
7476;DHT22;3779;49.216;8.650;2024-03-02T02:23:59;19.60;43.30
7476;DHT22;3779;49.216;8.650;2024-03-02T02:26:45;19.60;43.90
7476;DHT22;3779;49.216;8.650;2024-03-02T02:29:31;19.60;44.20
7476;DHT22;3779;49.216;8.650;2024-03-02T02:32:16;19.60;43.70
7476;DHT22;3779;49.216;8.650;2024-03-02T02:35:03;19.70;45.40
7476;DHT22;3779;49.216;8.650;2024-03-02T02:37:49;19.70;44.50
7476;DHT22;3779;49.216;8.650;2024-03-02T02:40:36;19.70;43.80
7476;DHT22;3779;49.216;8.650;2024-03-02T02:43:21;19.70;44.40
7476;DHT22;3779;49.216;8.650;2024-03-02T02:46:07;19.70;44.40
7476;DHT22;3779;49.216;8.650;2024-03-02T02:48:53;19.70;45.10
7476;DHT22;3779;49.216;8.650;2024-03-02T02:51:39;19.70;45.50
7476;DHT22;3779;49.216;8.650;2024-03-02T02:54:25;19.70;44.70
7476;DHT22;3779;49.216;8.650;2024-03-02T02:57:10;19.70;44.20
7476;DHT22;3779;49.216;8.650;2024-03-02T02:59:57;19.70;42.60
7476;DHT22;3779;49.216;8.650;2024-03-02T03:02:44;19.60;44.70
7476;DHT22;3779;49.216;8.650;2024-03-02T03:05:30;19.70;43.90
7476;DHT22;3779;49.216;8.650;2024-03-02T03:08:16;19.60;43.60
7476;DHT22;3779;49.216;8.650;2024-03-02T03:11:02;19.60;42.30
7476;DHT22;3779;49.216;8.650;2024-03-02T03:13:47;19.60;44.00
7476;DHT22;3779;49.216;8.650;2024-03-02T03:16:33;19.60;42.90
7476;DHT22;3779;49.216;8.650;2024-03-02T03:19:19;19.60;42.70
7476;DHT22;3779;49.216;8.650;2024-03-02T03:22:05;19.60;42.90
7476;DHT22;3779;49.216;8.650;2024-03-02T03:24:51;19.50;43.30
7476;DHT22;3779;49.216;8.650;2024-03-02T03:27:37;19.60;44.30
7476;DHT22;3779;49.216;8.650;2024-03-02T03:30:22;19.60;42.30
7476;DHT22;3779;49.216;8.650;2024-03-02T03:33:08;19.60;43.70
7476;DHT22;3779;49.216;8.650;2024-03-02T03:35:54;19.60;44.10
7476;DHT22;3779;49.216;8.650;2024-03-02T03:38:40;19.60;42.50
7476;DHT22;3779;49.216;8.650;2024-03-02T03:41:25;19.60;42.70
7476;DHT22;3779;49.216;8.650;2024-03-02T03:44:11;19.60;44.10
7476;DHT22;3779;49.216;8.650;2024-03-02T03:46:57;19.60;44.00
7476;DHT22;3779;49.216;8.650;2024-03-02T03:49:43;19.70;44.40
7476;DHT22;3779;49.216;8.650;2024-03-02T03:52:28;19.70;43.50
7476;DHT22;3779;49.216;8.650;2024-03-02T03:55:14;19.70;45.30
7476;DHT22;3779;49.216;8.650;2024-03-02T03:58:00;19.70;44.40
7476;DHT22;3779;49.216;8.650;2024-03-02T04:00:46;19.70;43.50
7476;DHT22;3779;49.216;8.650;2024-03-02T04:03:32;19.70;44.00
7476;DHT22;3779;49.216;8.650;2024-03-02T04:06:17;19.70;44.90
7476;DHT22;3779;49.216;8.650;2024-03-02T04:09:03;19.70;44.70
7476;DHT22;3779;49.216;8.650;2024-03-02T04:11:49;19.80;44.20
7476;DHT22;3779;49.216;8.650;2024-03-02T04:14:35;19.70;44.80
7476;DHT22;3779;49.216;8.650;2024-03-02T04:17:21;19.70;44.90
7476;DHT22;3779;49.216;8.650;2024-03-02T04:20:07;19.70;43.50
7476;DHT22;3779;49.216;8.650;2024-03-02T04:22:53;19.70;43.80
7476;DHT22;3779;49.216;8.650;2024-03-02T04:25:38;19.70;43.20
7476;DHT22;3779;49.216;8.650;2024-03-02T04:28:24;19.70;43.20
7476;DHT22;3779;49.216;8.650;2024-03-02T04:31:10;19.70;43.40
7476;DHT22;3779;49.216;8.650;2024-03-02T04:33:56;19.70;43.90
7476;DHT22;3779;49.216;8.650;2024-03-02T04:36:42;19.70;43.30
7476;DHT22;3779;49.216;8.650;2024-03-02T04:39:27;19.70;45.10
7476;DHT22;3779;49.216;8.650;2024-03-02T04:42:14;19.70;43.50
7476;DHT22;3779;49.216;8.650;2024-03-02T04:45:00;19.70;43.60
7476;DHT22;3779;49.216;8.650;2024-03-02T04:47:45;19.70;44.10
7476;DHT22;3779;49.216;8.650;2024-03-02T04:50:31;19.70;43.20
7476;DHT22;3779;49.216;8.650;2024-03-02T04:53:17;19.70;44.30
7476;DHT22;3779;49.216;8.650;2024-03-02T04:56:03;19.70;44.00
7476;DHT22;3779;49.216;8.650;2024-03-02T04:59:07;19.70;44.30
7476;DHT22;3779;49.216;8.650;2024-03-02T05:01:53;19.70;44.20
7476;DHT22;3779;49.216;8.650;2024-03-02T05:04:39;19.70;43.00
7476;DHT22;3779;49.216;8.650;2024-03-02T05:07:25;19.70;44.00
7476;DHT22;3779;49.216;8.650;2024-03-02T05:10:11;19.70;44.60
7476;DHT22;3779;49.216;8.650;2024-03-02T05:12:59;19.70;42.60
7476;DHT22;3779;49.216;8.650;2024-03-02T05:15:45;19.60;44.00
7476;DHT22;3779;49.216;8.650;2024-03-02T05:18:32;19.60;42.30
7476;DHT22;3779;49.216;8.650;2024-03-02T05:21:17;19.60;42.40
7476;DHT22;3779;49.216;8.650;2024-03-02T05:24:03;20.20;43.90
7476;DHT22;3779;49.216;8.650;2024-03-02T05:26:49;19.50;41.40
7476;DHT22;3779;49.216;8.650;2024-03-02T05:29:35;19.50;41.90
7476;DHT22;3779;49.216;8.650;2024-03-02T05:32:21;19.50;41.80
7476;DHT22;3779;49.216;8.650;2024-03-02T05:35:07;19.50;43.20
7476;DHT22;3779;49.216;8.650;2024-03-02T05:37:53;19.50;42.80
7476;DHT22;3779;49.216;8.650;2024-03-02T05:40:39;19.50;43.40
7476;DHT22;3779;49.216;8.650;2024-03-02T05:43:25;19.50;42.20
7476;DHT22;3779;49.216;8.650;2024-03-02T05:46:10;19.50;42.40
7476;DHT22;3779;49.216;8.650;2024-03-02T05:48:56;19.50;41.20
7476;DHT22;3779;49.216;8.650;2024-03-02T05:51:42;19.60;44.00
7476;DHT22;3779;49.216;8.650;2024-03-02T05:54:27;19.60;42.70
7476;DHT22;3779;49.216;8.650;2024-03-02T05:57:13;19.50;43.20
7476;DHT22;3779;49.216;8.650;2024-03-02T06:00:08;19.50;42.50
7476;DHT22;3779;49.216;8.650;2024-03-02T06:02:58;19.50;43.90
7476;DHT22;3779;49.216;8.650;2024-03-02T06:05:44;19.50;42.50
7476;DHT22;3779;49.216;8.650;2024-03-02T06:08:30;19.50;42.70
7476;DHT22;3779;49.216;8.650;2024-03-02T06:11:15;19.60;44.10
7476;DHT22;3779;49.216;8.650;2024-03-02T06:14:01;19.50;42.90
7476;DHT22;3779;49.216;8.650;2024-03-02T06:16:47;19.50;44.10
7476;DHT22;3779;49.216;8.650;2024-03-02T06:19:32;19.70;44.80
7476;DHT22;3779;49.216;8.650;2024-03-02T06:22:18;19.60;43.50
7476;DHT22;3779;49.216;8.650;2024-03-02T06:25:05;19.70;45.10
7476;DHT22;3779;49.216;8.650;2024-03-02T06:27:50;19.60;44.70
7476;DHT22;3779;49.216;8.650;2024-03-02T06:30:36;19.80;44.60
7476;DHT22;3779;49.216;8.650;2024-03-02T06:33:22;19.60;43.30
7476;DHT22;3779;49.216;8.650;2024-03-02T06:36:08;19.60;44.60
7476;DHT22;3779;49.216;8.650;2024-03-02T06:38:56;19.60;44.50
7476;DHT22;3779;49.216;8.650;2024-03-02T07:31:25;19.40;42.60
7476;DHT22;3779;49.216;8.650;2024-03-02T07:34:11;19.40;43.40
7476;DHT22;3779;49.216;8.650;2024-03-02T07:51:01;19.50;43.90
7476;DHT22;3779;49.216;8.650;2024-03-02T07:53:48;19.50;44.30
7476;DHT22;3779;49.216;8.650;2024-03-02T07:56:34;19.60;43.90
7476;DHT22;3779;49.216;8.650;2024-03-02T07:59:20;19.50;44.20
7476;DHT22;3779;49.216;8.650;2024-03-02T08:02:07;19.50;44.90
7476;DHT22;3779;49.216;8.650;2024-03-02T08:04:53;19.50;43.70
7476;DHT22;3779;49.216;8.650;2024-03-02T08:07:39;19.50;45.50
7476;DHT22;3779;49.216;8.650;2024-03-02T08:10:25;19.50;46.30
7476;DHT22;3779;49.216;8.650;2024-03-02T08:13:10;19.60;46.40
7476;DHT22;3779;49.216;8.650;2024-03-02T08:16:02;19.60;46.00
7476;DHT22;3779;49.216;8.650;2024-03-02T08:18:52;19.70;44.80
7476;DHT22;3779;49.216;8.650;2024-03-02T08:21:38;20.60;46.80
7476;DHT22;3779;49.216;8.650;2024-03-02T08:24:24;19.80;45.70
7476;DHT22;3779;49.216;8.650;2024-03-02T08:27:09;19.70;46.30
7476;DHT22;3779;49.216;8.650;2024-03-02T08:29:55;19.70;47.40
7476;DHT22;3779;49.216;8.650;2024-03-02T08:32:41;19.70;47.40
7476;DHT22;3779;49.216;8.650;2024-03-02T08:35:27;19.70;47.40
7476;DHT22;3779;49.216;8.650;2024-03-02T08:38:13;19.80;47.20
7476;DHT22;3779;49.216;8.650;2024-03-02T08:40:59;19.80;47.20
7476;DHT22;3779;49.216;8.650;2024-03-02T08:43:45;19.80;47.60
7476;DHT22;3779;49.216;8.650;2024-03-02T08:46:31;19.80;47.30
7476;DHT22;3779;49.216;8.650;2024-03-02T08:49:16;19.80;48.20
7476;DHT22;3779;49.216;8.650;2024-03-02T08:52:02;19.70;46.10
7476;DHT22;3779;49.216;8.650;2024-03-02T08:54:48;19.60;48.30
7476;DHT22;3779;49.216;8.650;2024-03-02T08:57:34;19.70;48.70
7476;DHT22;3779;49.216;8.650;2024-03-02T09:00:20;19.70;48.90
7476;DHT22;3779;49.216;8.650;2024-03-02T09:06:19;19.70;47.30
7476;DHT22;3779;49.216;8.650;2024-03-02T09:09:07;19.90;48.00
7476;DHT22;3779;49.216;8.650;2024-03-02T09:50:03;19.90;49.70
7476;DHT22;3779;49.216;8.650;2024-03-02T09:59:10;19.80;50.20
7476;DHT22;3779;49.216;8.650;2024-03-02T10:26:16;19.90;49.80
7476;DHT22;3779;49.216;8.650;2024-03-02T10:29:08;20.20;49.50
7476;DHT22;3779;49.216;8.650;2024-03-02T10:37:47;19.80;50.00
7476;DHT22;3779;49.216;8.650;2024-03-02T10:46:13;19.80;50.10
7476;DHT22;3779;49.216;8.650;2024-03-02T10:49:01;19.80;50.00
7476;DHT22;3779;49.216;8.650;2024-03-02T10:54:37;20.00;48.50
7476;DHT22;3779;49.216;8.650;2024-03-02T11:00:46;20.00;49.50
7476;DHT22;3779;49.216;8.650;2024-03-02T11:12:59;20.00;49.50
7476;DHT22;3779;49.216;8.650;2024-03-02T11:16:30;20.20;50.00
7476;DHT22;3779;49.216;8.650;2024-03-02T11:19:56;20.20;50.40
7476;DHT22;3779;49.216;8.650;2024-03-02T11:22:52;19.90;50.00
7476;DHT22;3779;49.216;8.650;2024-03-02T11:25:38;19.90;49.40
7476;DHT22;3779;49.216;8.650;2024-03-02T11:28:36;20.00;48.80
7476;DHT22;3779;49.216;8.650;2024-03-02T11:49:00;20.00;49.20
7476;DHT22;3779;49.216;8.650;2024-03-02T11:52:14;20.00;47.30
7476;DHT22;3779;49.216;8.650;2024-03-02T12:01:23;20.10;47.10
7476;DHT22;3779;49.216;8.650;2024-03-02T12:04:30;20.10;47.70
7476;DHT22;3779;49.216;8.650;2024-03-02T12:10:41;20.10;46.50
7476;DHT22;3779;49.216;8.650;2024-03-02T12:16:45;20.10;45.60
7476;DHT22;3779;49.216;8.650;2024-03-02T12:19:44;20.10;45.00
7476;DHT22;3779;49.216;8.650;2024-03-02T12:22:28;20.00;45.10
7476;DHT22;3779;49.216;8.650;2024-03-02T12:25:16;20.00;44.80
7476;DHT22;3779;49.216;8.650;2024-03-02T12:34:39;19.90;45.60
7476;DHT22;3779;49.216;8.650;2024-03-02T12:37:27;19.90;45.00
7476;DHT22;3779;49.216;8.650;2024-03-02T12:40:17;20.00;44.00
7476;DHT22;3779;49.216;8.650;2024-03-02T12:52:00;19.80;43.30
7476;DHT22;3779;49.216;8.650;2024-03-02T12:57:35;19.80;43.50
7476;DHT22;3779;49.216;8.650;2024-03-02T13:00:34;19.80;42.80
7476;DHT22;3779;49.216;8.650;2024-03-02T13:21:50;19.80;44.20
7476;DHT22;3779;49.216;8.650;2024-03-02T13:24:48;19.80;43.40
7476;DHT22;3779;49.216;8.650;2024-03-02T13:27:39;19.80;42.90
7476;DHT22;3779;49.216;8.650;2024-03-02T13:30:19;19.80;42.90
7476;DHT22;3779;49.216;8.650;2024-03-02T13:33:05;19.80;42.90
7476;DHT22;3779;49.216;8.650;2024-03-02T13:42:00;19.90;42.40
7476;DHT22;3779;49.216;8.650;2024-03-02T14:06:12;19.90;42.00
7476;DHT22;3779;49.216;8.650;2024-03-02T14:25:53;19.90;41.00
7476;DHT22;3779;49.216;8.650;2024-03-02T14:28:41;19.90;41.50
7476;DHT22;3779;49.216;8.650;2024-03-02T14:31:27;19.90;41.40
7476;DHT22;3779;49.216;8.650;2024-03-02T14:34:22;19.90;43.30
7476;DHT22;3779;49.216;8.650;2024-03-02T14:37:09;20.00;41.30
7476;DHT22;3779;49.216;8.650;2024-03-02T14:39:55;20.00;41.80
7476;DHT22;3779;49.216;8.650;2024-03-02T14:42:42;20.90;42.10
7476;DHT22;3779;49.216;8.650;2024-03-02T14:48:21;20.00;41.70
7476;DHT22;3779;49.216;8.650;2024-03-02T14:51:06;20.00;40.60
7476;DHT22;3779;49.216;8.650;2024-03-02T15:00:20;20.00;41.40
7476;DHT22;3779;49.216;8.650;2024-03-02T15:06:04;20.00;41.90
7476;DHT22;3779;49.216;8.650;2024-03-02T15:08:50;20.00;41.90
7476;DHT22;3779;49.216;8.650;2024-03-02T15:11:36;20.00;41.60
7476;DHT22;3779;49.216;8.650;2024-03-02T15:14:22;20.00;41.60
7476;DHT22;3779;49.216;8.650;2024-03-02T16:01:34;19.90;42.70
7476;DHT22;3779;49.216;8.650;2024-03-02T16:22:29;19.80;43.00
7476;DHT22;3779;49.216;8.650;2024-03-02T16:28:10;19.80;43.60
7476;DHT22;3779;49.216;8.650;2024-03-02T16:30:56;19.80;43.60
7476;DHT22;3779;49.216;8.650;2024-03-02T16:33:42;19.70;43.90
7476;DHT22;3779;49.216;8.650;2024-03-02T16:36:27;20.40;44.50
7476;DHT22;3779;49.216;8.650;2024-03-02T16:39:18;19.70;44.40
7476;DHT22;3779;49.216;8.650;2024-03-02T16:42:03;19.80;44.50
7476;DHT22;3779;49.216;8.650;2024-03-02T16:44:49;19.70;44.90
7476;DHT22;3779;49.216;8.650;2024-03-02T16:47:39;19.90;44.80
7476;DHT22;3779;49.216;8.650;2024-03-02T16:50:25;19.80;44.30
7476;DHT22;3779;49.216;8.650;2024-03-02T16:53:11;19.80;43.60
7476;DHT22;3779;49.216;8.650;2024-03-02T16:56:01;19.80;43.80
7476;DHT22;3779;49.216;8.650;2024-03-02T16:58:47;19.70;43.40
7476;DHT22;3779;49.216;8.650;2024-03-02T17:01:33;19.80;43.20
7476;DHT22;3779;49.216;8.650;2024-03-02T17:04:19;19.70;43.20
7476;DHT22;3779;49.216;8.650;2024-03-02T17:07:08;19.70;43.30
7476;DHT22;3779;49.216;8.650;2024-03-02T17:09:54;19.70;43.20
7476;DHT22;3779;49.216;8.650;2024-03-02T17:12:50;19.70;44.00
7476;DHT22;3779;49.216;8.650;2024-03-02T17:15:35;19.80;43.50
7476;DHT22;3779;49.216;8.650;2024-03-02T17:24:21;20.00;43.10
7476;DHT22;3779;49.216;8.650;2024-03-02T17:30:02;20.00;43.00
7476;DHT22;3779;49.216;8.650;2024-03-02T17:32:48;20.00;42.40
7476;DHT22;3779;49.216;8.650;2024-03-02T17:35:31;20.00;42.30
7476;DHT22;3779;49.216;8.650;2024-03-02T17:38:08;20.00;42.20
7476;DHT22;3779;49.216;8.650;2024-03-02T17:40:54;20.00;43.10
7476;DHT22;3779;49.216;8.650;2024-03-02T17:58:21;20.10;44.10
7476;DHT22;3779;49.216;8.650;2024-03-02T18:01:08;20.90;44.80
7476;DHT22;3779;49.216;8.650;2024-03-02T18:03:57;20.10;44.50
7476;DHT22;3779;49.216;8.650;2024-03-02T18:06:50;20.10;45.80
7476;DHT22;3779;49.216;8.650;2024-03-02T18:09:36;20.10;44.40
7476;DHT22;3779;49.216;8.650;2024-03-02T18:12:22;20.20;43.10
7476;DHT22;3779;49.216;8.650;2024-03-02T18:15:08;20.10;43.90
7476;DHT22;3779;49.216;8.650;2024-03-02T18:20:43;20.20;44.30
7476;DHT22;3779;49.216;8.650;2024-03-02T18:23:32;21.10;45.30
7476;DHT22;3779;49.216;8.650;2024-03-02T18:26:17;20.20;44.10
7476;DHT22;3779;49.216;8.650;2024-03-02T18:29:03;20.10;45.10
7476;DHT22;3779;49.216;8.650;2024-03-02T18:31:53;20.20;44.10
7476;DHT22;3779;49.216;8.650;2024-03-02T18:34:39;20.20;44.10
7476;DHT22;3779;49.216;8.650;2024-03-02T18:37:28;20.30;43.70
7476;DHT22;3779;49.216;8.650;2024-03-02T18:46:12;20.10;44.20
7476;DHT22;3779;49.216;8.650;2024-03-02T18:48:58;20.10;43.40
7476;DHT22;3779;49.216;8.650;2024-03-02T18:54:42;20.10;43.30
7476;DHT22;3779;49.216;8.650;2024-03-02T18:57:30;20.10;43.40
7476;DHT22;3779;49.216;8.650;2024-03-02T19:00:16;20.10;42.80
7476;DHT22;3779;49.216;8.650;2024-03-02T19:03:02;20.10;43.80
7476;DHT22;3779;49.216;8.650;2024-03-02T19:05:47;20.10;42.80
7476;DHT22;3779;49.216;8.650;2024-03-02T19:08:33;20.10;42.90
7476;DHT22;3779;49.216;8.650;2024-03-02T19:11:19;20.20;43.10
7476;DHT22;3779;49.216;8.650;2024-03-02T19:14:05;20.10;43.00
7476;DHT22;3779;49.216;8.650;2024-03-02T19:16:51;20.10;43.10
7476;DHT22;3779;49.216;8.650;2024-03-02T19:19:37;20.00;44.00
7476;DHT22;3779;49.216;8.650;2024-03-02T19:22:25;20.00;44.10
7476;DHT22;3779;49.216;8.650;2024-03-02T19:25:12;20.10;44.50
7476;DHT22;3779;49.216;8.650;2024-03-02T19:27:59;20.00;45.40
7476;DHT22;3779;49.216;8.650;2024-03-02T19:43:10;20.10;45.10
7476;DHT22;3779;49.216;8.650;2024-03-02T19:45:55;20.10;45.10
7476;DHT22;3779;49.216;8.650;2024-03-02T19:48:42;20.10;45.00
7476;DHT22;3779;49.216;8.650;2024-03-02T19:51:28;20.10;45.30
7476;DHT22;3779;49.216;8.650;2024-03-02T19:54:14;20.20;45.20
7476;DHT22;3779;49.216;8.650;2024-03-02T19:57:02;20.20;45.10
7476;DHT22;3779;49.216;8.650;2024-03-02T19:59:48;20.20;45.40
7476;DHT22;3779;49.216;8.650;2024-03-02T20:02:33;20.20;45.50
7476;DHT22;3779;49.216;8.650;2024-03-02T20:05:19;20.20;45.30
7476;DHT22;3779;49.216;8.650;2024-03-02T20:08:05;20.20;45.20
7476;DHT22;3779;49.216;8.650;2024-03-02T20:10:53;20.10;45.20
7476;DHT22;3779;49.216;8.650;2024-03-02T20:13:38;20.10;44.90
7476;DHT22;3779;49.216;8.650;2024-03-02T20:16:24;20.10;45.30
7476;DHT22;3779;49.216;8.650;2024-03-02T20:19:10;20.00;45.40
7476;DHT22;3779;49.216;8.650;2024-03-02T20:21:56;20.10;45.40
7476;DHT22;3779;49.216;8.650;2024-03-02T20:24:43;20.20;45.20
7476;DHT22;3779;49.216;8.650;2024-03-02T20:27:29;20.20;45.00
7476;DHT22;3779;49.216;8.650;2024-03-02T20:30:15;20.00;45.30
7476;DHT22;3779;49.216;8.650;2024-03-02T20:33:01;20.00;45.60
7476;DHT22;3779;49.216;8.650;2024-03-02T20:35:47;20.00;45.60
7476;DHT22;3779;49.216;8.650;2024-03-02T20:38:33;20.10;46.20
7476;DHT22;3779;49.216;8.650;2024-03-02T20:41:19;20.10;46.30
7476;DHT22;3779;49.216;8.650;2024-03-02T20:44:05;20.00;46.50
7476;DHT22;3779;49.216;8.650;2024-03-02T20:46:52;20.10;46.10
7476;DHT22;3779;49.216;8.650;2024-03-02T20:49:38;20.10;45.40
7476;DHT22;3779;49.216;8.650;2024-03-02T20:52:27;20.10;46.20
7476;DHT22;3779;49.216;8.650;2024-03-02T20:55:13;20.00;45.20
7476;DHT22;3779;49.216;8.650;2024-03-02T20:57:59;20.00;46.00
7476;DHT22;3779;49.216;8.650;2024-03-02T21:00:45;20.00;46.00
7476;DHT22;3779;49.216;8.650;2024-03-02T21:03:31;20.00;45.90
7476;DHT22;3779;49.216;8.650;2024-03-02T21:06:18;20.00;46.60
7476;DHT22;3779;49.216;8.650;2024-03-02T21:09:04;20.00;45.50
7476;DHT22;3779;49.216;8.650;2024-03-02T21:11:51;20.00;45.50
7476;DHT22;3779;49.216;8.650;2024-03-02T21:14:36;20.00;46.50
7476;DHT22;3779;49.216;8.650;2024-03-02T21:17:25;20.00;45.70
7476;DHT22;3779;49.216;8.650;2024-03-02T21:20:11;20.00;45.80
7476;DHT22;3779;49.216;8.650;2024-03-02T21:22:58;19.90;45.70
7476;DHT22;3779;49.216;8.650;2024-03-02T21:25:43;20.00;46.00
7476;DHT22;3779;49.216;8.650;2024-03-02T21:28:30;19.90;45.80
7476;DHT22;3779;49.216;8.650;2024-03-02T21:31:16;20.10;45.90
7476;DHT22;3779;49.216;8.650;2024-03-02T21:34:01;20.00;45.40
7476;DHT22;3779;49.216;8.650;2024-03-02T21:36:47;19.90;45.60
7476;DHT22;3779;49.216;8.650;2024-03-02T21:39:33;19.90;46.00
7476;DHT22;3779;49.216;8.650;2024-03-02T21:42:19;19.90;45.80
7476;DHT22;3779;49.216;8.650;2024-03-02T21:45:05;20.00;45.90
7476;DHT22;3779;49.216;8.650;2024-03-02T21:47:51;19.90;45.70
7476;DHT22;3779;49.216;8.650;2024-03-02T21:50:37;20.00;45.70
7476;DHT22;3779;49.216;8.650;2024-03-02T21:59:21;19.90;46.10
7476;DHT22;3779;49.216;8.650;2024-03-02T22:23:26;19.80;45.90
7476;DHT22;3779;49.216;8.650;2024-03-02T22:35:43;19.80;46.20
7476;DHT22;3779;49.216;8.650;2024-03-02T22:38:29;19.90;45.90
7476;DHT22;3779;49.216;8.650;2024-03-02T22:41:14;19.90;45.90
7476;DHT22;3779;49.216;8.650;2024-03-02T22:46:55;19.90;45.60
7476;DHT22;3779;49.216;8.650;2024-03-02T22:52:43;19.90;46.00
7476;DHT22;3779;49.216;8.650;2024-03-02T22:55:29;19.90;45.80
7476;DHT22;3779;49.216;8.650;2024-03-02T23:01:11;19.90;45.80
7476;DHT22;3779;49.216;8.650;2024-03-02T23:03:49;19.90;45.90
